createdAt,value
2018-03-18T00:00:58.393Z,-3.82
2018-03-18T00:02:05.895Z,-3.86
2018-03-18T00:03:11.610Z,-3.90
2018-03-18T00:04:17.570Z,-3.82
2018-03-18T00:05:23.755Z,-3.82
2018-03-18T00:06:29.714Z,-3.79
2018-03-18T00:07:35.749Z,-3.79
2018-03-18T00:08:41.968Z,-3.76
2018-03-18T00:09:48.162Z,-3.77
2018-03-18T00:10:54.573Z,-3.80
2018-03-18T00:12:00.731Z,-3.79
2018-03-18T00:13:06.952Z,-3.81
2018-03-18T00:14:13.975Z,-3.81
2018-03-18T00:15:20.290Z,-3.79
2018-03-18T00:16:26.489Z,-3.79
2018-03-18T00:17:32.684Z,-3.75
2018-03-18T00:18:38.910Z,-3.83
2018-03-18T00:19:45.114Z,-3.83
2018-03-18T00:20:51.317Z,-3.89
2018-03-18T00:21:57.500Z,-3.91
2018-03-18T00:23:03.885Z,-3.90
2018-03-18T00:24:10.023Z,-3.90
2018-03-18T00:25:16.232Z,-3.93
2018-03-18T00:26:22.345Z,-3.96
2018-03-18T00:27:28.469Z,-3.95
2018-03-18T00:28:34.582Z,-3.96
2018-03-18T00:29:40.748Z,-3.98
2018-03-18T00:30:46.893Z,-3.97
2018-03-18T00:31:53.074Z,-3.96
2018-03-18T00:32:59.204Z,-4.04
2018-03-18T00:34:05.339Z,-4.09
2018-03-18T00:35:11.451Z,-4.10
2018-03-18T00:36:18.466Z,-4.15
2018-03-18T00:37:24.616Z,-4.09
2018-03-18T00:38:30.771Z,-4.06
2018-03-18T00:39:36.902Z,-4.11
2018-03-18T00:40:43.134Z,-4.11
2018-03-18T00:41:49.341Z,-4.12
2018-03-18T00:42:55.492Z,-4.11
2018-03-18T00:44:01.633Z,-4.13
2018-03-18T00:45:07.829Z,-4.10
2018-03-18T00:46:14.064Z,-4.07
2018-03-18T00:47:20.376Z,-4.11
2018-03-18T00:48:26.528Z,-4.16
2018-03-18T00:49:32.004Z,-4.20
2018-03-18T00:50:37.960Z,-4.25
2018-03-18T00:51:55.151Z,-4.18
2018-03-18T00:53:01.056Z,-4.23
2018-03-18T00:54:07.299Z,-4.22
2018-03-18T00:55:13.288Z,-4.21
2018-03-18T00:56:19.443Z,-4.26
2018-03-18T00:57:25.654Z,-4.29
2018-03-18T00:58:31.887Z,-4.32
2018-03-18T00:59:38.078Z,-4.29
2018-03-18T01:00:44.251Z,-4.26
2018-03-18T01:01:50.491Z,-4.26
2018-03-18T01:02:56.679Z,-4.35
2018-03-18T01:04:02.885Z,-4.29
2018-03-18T01:05:09.092Z,-4.28
2018-03-18T01:06:15.271Z,-4.33
2018-03-18T01:07:21.232Z,-4.31
2018-03-18T01:08:27.389Z,-4.37
2018-03-18T01:09:33.551Z,-4.40
2018-03-18T01:10:39.718Z,-4.38
2018-03-18T01:11:45.920Z,-4.36
2018-03-18T01:12:57.239Z,-4.43
2018-03-18T01:14:03.385Z,-4.40
2018-03-18T01:15:09.746Z,-4.37
2018-03-18T01:16:16.001Z,-4.41
2018-03-18T01:17:22.116Z,-4.36
2018-03-18T01:18:28.273Z,-4.40
2018-03-18T01:19:34.420Z,-4.44
2018-03-18T01:20:40.565Z,-4.45
2018-03-18T01:21:46.711Z,-4.46
2018-03-18T01:22:52.874Z,-4.45
2018-03-18T01:23:59.122Z,-4.43
2018-03-18T01:25:05.375Z,-4.49
2018-03-18T01:26:14.231Z,-4.49
2018-03-18T01:27:20.448Z,-4.43
2018-03-18T01:28:26.676Z,-4.44
2018-03-18T01:29:33.775Z,-4.44
2018-03-18T01:30:39.967Z,-4.45
2018-03-18T01:31:45.994Z,-4.48
2018-03-18T01:32:52.206Z,-4.50
2018-03-18T01:33:58.337Z,-4.49
2018-03-18T01:35:04.199Z,-4.49
2018-03-18T01:36:10.409Z,-4.54
2018-03-18T01:37:17.521Z,-4.54
2018-03-18T01:38:23.724Z,-4.63
2018-03-18T01:39:29.862Z,-4.58
2018-03-18T01:40:36.012Z,-4.53
2018-03-18T01:41:42.364Z,-4.49
2018-03-18T01:42:48.520Z,-4.52
2018-03-18T01:43:55.621Z,-4.53
2018-03-18T01:45:01.841Z,-4.53
2018-03-18T01:46:08.021Z,-4.59
2018-03-18T01:47:14.220Z,-4.62
2018-03-18T01:48:20.450Z,-4.60
2018-03-18T01:49:26.756Z,-4.60
2018-03-18T01:50:32.874Z,-4.59
2018-03-18T01:51:39.068Z,-4.67
2018-03-18T01:52:56.393Z,-4.65
2018-03-18T01:54:02.287Z,-4.70
2018-03-18T01:55:08.468Z,-4.63
2018-03-18T01:56:14.654Z,-4.69
2018-03-18T01:57:20.802Z,-4.63
2018-03-18T01:58:26.996Z,-4.64
2018-03-18T01:59:34.030Z,-4.65
2018-03-18T02:00:39.877Z,-4.60
2018-03-18T02:01:45.008Z,-4.60
2018-03-18T02:02:51.266Z,-4.66
2018-03-18T02:03:57.341Z,-4.63
2018-03-18T02:05:03.600Z,-4.61
2018-03-18T02:06:09.532Z,-4.63
2018-03-18T02:07:15.729Z,-4.58
2018-03-18T02:08:21.979Z,-4.65
2018-03-18T02:09:28.364Z,-4.67
2018-03-18T02:10:34.511Z,-4.68
2018-03-18T02:11:40.695Z,-4.69
2018-03-18T02:12:46.892Z,-4.75
2018-03-18T02:13:53.084Z,-4.73
2018-03-18T02:14:59.210Z,-4.74
2018-03-18T02:16:05.340Z,-4.75
2018-03-18T02:17:11.516Z,-4.79
2018-03-18T02:18:17.683Z,-4.76
2018-03-18T02:19:23.842Z,-4.78
2018-03-18T02:20:29.953Z,-4.79
2018-03-18T02:21:36.182Z,-4.75
2018-03-18T02:22:42.133Z,-4.67
2018-03-18T02:23:48.328Z,-4.72
2018-03-18T02:24:54.478Z,-4.67
2018-03-18T02:26:00.637Z,-4.67
2018-03-18T02:27:06.536Z,-4.67
2018-03-18T02:28:12.694Z,-4.75
2018-03-18T02:29:18.965Z,-4.71
2018-03-18T02:30:25.294Z,-4.74
2018-03-18T02:31:31.714Z,-4.78
2018-03-18T02:32:37.940Z,-4.73
2018-03-18T02:33:44.176Z,-4.70
2018-03-18T02:34:50.410Z,-4.75
2018-03-18T02:35:56.604Z,-4.74
2018-03-18T02:37:02.804Z,-4.71
2018-03-18T02:38:09.036Z,-4.71
2018-03-18T02:39:15.200Z,-4.76
2018-03-18T02:40:21.349Z,-4.74
2018-03-18T02:41:27.291Z,-4.75
2018-03-18T02:42:33.431Z,-4.73
2018-03-18T02:43:39.275Z,-4.72
2018-03-18T02:44:45.441Z,-4.76
2018-03-18T02:45:51.546Z,-4.74
2018-03-18T02:46:57.722Z,-4.74
2018-03-18T02:48:03.899Z,-4.74
2018-03-18T02:49:10.038Z,-4.70
2018-03-18T02:50:17.162Z,-4.73
2018-03-18T02:51:27.356Z,-4.80
2018-03-18T02:52:33.509Z,-4.76
2018-03-18T02:53:39.680Z,-4.76
2018-03-18T02:54:45.865Z,-4.79
2018-03-18T02:55:52.949Z,-4.77
2018-03-18T02:56:59.185Z,-4.83
2018-03-18T02:58:05.442Z,-4.87
2018-03-18T02:59:11.233Z,-4.90
2018-03-18T03:00:17.418Z,-4.82
2018-03-18T03:01:23.656Z,-4.78
2018-03-18T03:02:29.816Z,-4.82
2018-03-18T03:03:36.039Z,-4.80
2018-03-18T03:04:42.219Z,-4.83
2018-03-18T03:05:48.399Z,-4.85
2018-03-18T03:06:54.552Z,-4.87
2018-03-18T03:08:00.810Z,-4.89
2018-03-18T03:09:06.660Z,-4.92
2018-03-18T03:10:12.598Z,-4.85
2018-03-18T03:11:18.726Z,-4.92
2018-03-18T03:12:24.916Z,-4.93
2018-03-18T03:13:31.086Z,-4.90
2018-03-18T03:14:37.232Z,-4.86
2018-03-18T03:15:43.423Z,-4.90
2018-03-18T03:16:49.579Z,-4.95
2018-03-18T03:17:55.687Z,-4.92
2018-03-18T03:19:01.853Z,-4.90
2018-03-18T03:20:07.614Z,-4.90
2018-03-18T03:21:13.790Z,-4.95
2018-03-18T03:22:19.980Z,-4.88
2018-03-18T03:23:25.861Z,-4.92
2018-03-18T03:24:32.036Z,-4.90
2018-03-18T03:25:38.210Z,-4.91
2018-03-18T03:26:44.388Z,-4.92
2018-03-18T03:27:59.500Z,-4.90
2018-03-18T03:29:05.654Z,-4.91
2018-03-18T03:30:11.791Z,-4.94
2018-03-18T03:31:18.031Z,-4.93
2018-03-18T03:32:24.212Z,-4.99
2018-03-18T03:33:31.239Z,-5.02
2018-03-18T03:34:40.257Z,-4.99
2018-03-18T03:35:46.388Z,-4.95
2018-03-18T03:36:53.412Z,-5.00
2018-03-18T03:37:59.590Z,-5.00
2018-03-18T03:39:05.099Z,-4.98
2018-03-18T03:40:10.996Z,-5.01
2018-03-18T03:41:17.198Z,-5.03
2018-03-18T03:42:23.321Z,-5.05
2018-03-18T03:43:29.468Z,-5.08
2018-03-18T03:44:35.630Z,-5.05
2018-03-18T03:45:42.734Z,-5.01
2018-03-18T03:46:49.020Z,-5.00
2018-03-18T03:47:55.434Z,-5.06
2018-03-18T03:49:03.606Z,-5.08
2018-03-18T03:50:14.909Z,-5.06
2018-03-18T03:51:21.051Z,-5.10
2018-03-18T03:52:27.254Z,-5.11
2018-03-18T03:53:33.414Z,-5.13
2018-03-18T03:54:39.517Z,-5.07
2018-03-18T03:55:45.730Z,-5.10
2018-03-18T03:56:51.862Z,-5.12
2018-03-18T03:57:58.019Z,-5.11
2018-03-18T03:59:04.202Z,-5.13
2018-03-18T04:00:10.359Z,-5.10
2018-03-18T04:01:16.529Z,-5.22
2018-03-18T04:02:22.677Z,-5.16
2018-03-18T04:03:28.766Z,-5.17
2018-03-18T04:04:34.924Z,-5.18
2018-03-18T04:05:41.161Z,-5.24
2018-03-18T04:06:47.322Z,-5.23
2018-03-18T04:07:53.452Z,-5.21
2018-03-18T04:08:59.590Z,-5.18
2018-03-18T04:10:17.184Z,-5.21
2018-03-18T04:11:23.364Z,-5.25
2018-03-18T04:12:29.548Z,-5.23
2018-03-18T04:13:35.714Z,-5.32
2018-03-18T04:14:42.068Z,-5.27
2018-03-18T04:15:48.184Z,-5.24
2018-03-18T04:16:59.893Z,-5.30
2018-03-18T04:18:06.082Z,-5.31
2018-03-18T04:19:17.403Z,-5.27
2018-03-18T04:20:23.510Z,-5.31
2018-03-18T04:21:29.694Z,-5.26
2018-03-18T04:22:35.856Z,-5.27
2018-03-18T04:23:41.821Z,-5.25
2018-03-18T04:24:48.046Z,-5.30
2018-03-18T04:25:54.241Z,-5.39
2018-03-18T04:27:00.433Z,-5.35
2018-03-18T04:28:06.834Z,-5.39
2018-03-18T04:29:13.017Z,-5.40
2018-03-18T04:30:19.178Z,-5.42
2018-03-18T04:31:29.907Z,-5.35
2018-03-18T04:32:38.667Z,-5.38
2018-03-18T04:33:44.845Z,-5.41
2018-03-18T04:34:51.012Z,-5.36
2018-03-18T04:35:57.187Z,-5.47
2018-03-18T04:37:03.308Z,-5.43
2018-03-18T04:38:09.398Z,-5.41
2018-03-18T04:39:15.538Z,-5.46
2018-03-18T04:40:21.705Z,-5.53
2018-03-18T04:41:27.905Z,-5.46
2018-03-18T04:42:34.147Z,-5.39
2018-03-18T04:43:40.288Z,-5.44
2018-03-18T04:44:46.452Z,-5.38
2018-03-18T04:45:52.708Z,-5.47
2018-03-18T04:46:58.909Z,-5.50
2018-03-18T04:48:05.035Z,-5.46
2018-03-18T04:49:11.208Z,-5.42
2018-03-18T04:50:17.427Z,-5.38
2018-03-18T04:51:23.586Z,-5.52
2018-03-18T04:52:29.468Z,-5.56
2018-03-18T04:53:35.669Z,-5.50
2018-03-18T04:54:41.808Z,-5.61
2018-03-18T04:55:49.116Z,-5.57
2018-03-18T04:56:55.226Z,-5.51
2018-03-18T04:58:01.347Z,-5.54
2018-03-18T04:59:09.358Z,-5.58
2018-03-18T05:00:15.528Z,-5.59
2018-03-18T05:01:21.773Z,-5.61
2018-03-18T05:02:27.959Z,-5.63
2018-03-18T05:03:34.120Z,-5.63
2018-03-18T05:04:40.265Z,-5.63
2018-03-18T05:05:46.266Z,-5.62
2018-03-18T05:06:52.504Z,-5.61
2018-03-18T05:07:58.956Z,-5.63
2018-03-18T05:09:04.443Z,-5.61
2018-03-18T05:10:10.656Z,-5.62
2018-03-18T05:11:16.660Z,-5.60
2018-03-18T05:12:22.827Z,-5.67
2018-03-18T05:13:29.000Z,-5.62
2018-03-18T05:14:35.111Z,-5.63
2018-03-18T05:15:41.240Z,-5.60
2018-03-18T05:16:47.423Z,-5.56
2018-03-18T05:17:53.588Z,-5.62
2018-03-18T05:18:59.761Z,-5.67
2018-03-18T05:20:05.933Z,-5.68
2018-03-18T05:21:12.082Z,-5.67
2018-03-18T05:22:18.535Z,-5.67
2018-03-18T05:23:24.687Z,-5.68
2018-03-18T05:24:30.817Z,-5.70
2018-03-18T05:25:36.996Z,-5.73
2018-03-18T05:26:43.137Z,-5.70
2018-03-18T05:27:50.260Z,-5.76
2018-03-18T05:28:56.365Z,-5.64
2018-03-18T05:30:02.537Z,-5.65
2018-03-18T05:31:08.132Z,-5.60
2018-03-18T05:32:14.227Z,-5.57
2018-03-18T05:33:20.511Z,-5.62
2018-03-18T05:34:26.717Z,-5.67
2018-03-18T05:35:32.914Z,-5.65
2018-03-18T05:36:39.097Z,-5.70
2018-03-18T05:37:45.095Z,-5.63
2018-03-18T05:38:51.118Z,-5.59
2018-03-18T05:39:57.271Z,-5.62
2018-03-18T05:41:03.422Z,-5.70
2018-03-18T05:42:09.602Z,-5.74
2018-03-18T05:43:15.742Z,-5.77
2018-03-18T05:44:21.891Z,-5.82
2018-03-18T05:45:27.996Z,-5.79
2018-03-18T05:46:34.178Z,-5.76
2018-03-18T05:47:40.297Z,-5.79
2018-03-18T05:48:46.413Z,-5.74
2018-03-18T05:49:52.597Z,-5.76
2018-03-18T05:50:58.756Z,-5.71
2018-03-18T05:52:04.896Z,-5.81
2018-03-18T05:53:11.072Z,-5.83
2018-03-18T05:54:17.489Z,-5.87
2018-03-18T05:55:23.629Z,-5.83
2018-03-18T05:56:29.577Z,-5.75
2018-03-18T05:57:35.709Z,-5.82
2018-03-18T05:58:41.878Z,-5.84
2018-03-18T05:59:48.072Z,-5.86
2018-03-18T06:00:54.226Z,-5.76
2018-03-18T06:02:00.420Z,-5.72
2018-03-18T06:03:06.613Z,-5.76
2018-03-18T06:04:12.728Z,-5.73
2018-03-18T06:05:18.887Z,-5.80
2018-03-18T06:06:25.078Z,-5.79
2018-03-18T06:07:31.242Z,-5.88
2018-03-18T06:08:37.366Z,-5.89
2018-03-18T06:09:43.521Z,-5.89
2018-03-18T06:10:49.648Z,-5.82
2018-03-18T06:11:55.776Z,-5.73
2018-03-18T06:13:01.946Z,-5.78
2018-03-18T06:14:08.146Z,-5.82
2018-03-18T06:15:14.296Z,-5.88
2018-03-18T06:16:20.429Z,-5.92
2018-03-18T06:17:26.638Z,-5.85
2018-03-18T06:18:32.791Z,-5.86
2018-03-18T06:19:38.945Z,-5.89
2018-03-18T06:20:45.128Z,-5.90
2018-03-18T06:21:51.313Z,-5.88
2018-03-18T06:22:57.476Z,-5.93
2018-03-18T06:24:03.675Z,-5.89
2018-03-18T06:25:10.550Z,-5.81
2018-03-18T06:26:16.715Z,-5.75
2018-03-18T06:27:22.896Z,-5.72
2018-03-18T06:28:29.089Z,-5.77
2018-03-18T06:29:35.239Z,-5.84
2018-03-18T06:30:41.412Z,-5.75
2018-03-18T06:31:47.512Z,-5.73
2018-03-18T06:32:53.790Z,-5.84
2018-03-18T06:34:00.282Z,-5.85
2018-03-18T06:35:08.358Z,-5.90
2018-03-18T06:36:16.787Z,-5.83
2018-03-18T06:37:23.902Z,-5.85
2018-03-18T06:38:32.646Z,-5.85
2018-03-18T06:39:40.608Z,-5.81
2018-03-18T06:40:47.984Z,-5.69
2018-03-18T06:41:55.612Z,-5.71
2018-03-18T06:43:03.099Z,-5.75
2018-03-18T06:44:11.134Z,-5.67
2018-03-18T06:45:19.183Z,-5.70
2018-03-18T06:46:26.486Z,-5.64
2018-03-18T06:47:32.709Z,-5.62
2018-03-18T06:48:39.125Z,-5.62
2018-03-18T06:49:45.457Z,-5.59
2018-03-18T06:50:51.430Z,-5.56
2018-03-18T06:51:57.941Z,-5.73
2018-03-18T06:53:04.284Z,-5.73
2018-03-18T06:54:11.907Z,-5.69
2018-03-18T06:55:20.338Z,-5.60
2018-03-18T06:56:27.035Z,-5.63
2018-03-18T06:57:34.037Z,-5.66
2018-03-18T06:58:46.709Z,-5.73
2018-03-18T06:59:54.167Z,-5.68
2018-03-18T07:01:02.066Z,-5.56
2018-03-18T07:02:09.434Z,-5.40
2018-03-18T07:03:16.548Z,-5.47
2018-03-18T07:04:24.080Z,-5.26
2018-03-18T07:05:30.925Z,-5.46
2018-03-18T07:06:38.784Z,-5.43
2018-03-18T07:07:45.329Z,-5.46
2018-03-18T07:08:51.602Z,-5.33
2018-03-18T07:09:57.857Z,-5.24
2018-03-18T07:11:03.728Z,-5.14
2018-03-18T07:12:09.915Z,-5.33
2018-03-18T07:13:16.115Z,-5.35
2018-03-18T07:14:27.184Z,-5.55
2018-03-18T07:15:33.285Z,-5.57
2018-03-18T07:16:39.775Z,-5.64
2018-03-18T07:17:46.922Z,-5.38
2018-03-18T07:18:53.298Z,-5.44
2018-03-18T07:19:59.970Z,-5.43
2018-03-18T07:21:06.574Z,-5.56
2018-03-18T07:22:13.047Z,-5.34
2018-03-18T07:23:20.149Z,-5.49
2018-03-18T07:24:26.429Z,-5.37
2018-03-18T07:25:32.688Z,-5.34
2018-03-18T07:26:39.092Z,-5.30
2018-03-18T07:27:45.556Z,-5.12
2018-03-18T07:28:52.813Z,-5.16
2018-03-18T07:29:59.493Z,-5.15
2018-03-18T07:31:05.866Z,-5.31
2018-03-18T07:32:12.189Z,-5.39
2018-03-18T07:33:19.028Z,-5.32
2018-03-18T07:34:25.341Z,-5.19
2018-03-18T07:35:31.666Z,-5.36
2018-03-18T07:36:38.336Z,-5.28
2018-03-18T07:37:44.550Z,-5.34
2018-03-18T07:38:52.677Z,-5.37
2018-03-18T07:39:59.548Z,-5.39
2018-03-18T07:41:06.129Z,-5.26
2018-03-18T07:42:12.529Z,-5.15
2018-03-18T07:43:18.958Z,-5.03
2018-03-18T07:44:26.058Z,-5.14
2018-03-18T07:45:32.768Z,-5.40
2018-03-18T07:46:39.367Z,-5.05
2018-03-18T07:47:45.510Z,-5.20
2018-03-18T07:48:52.206Z,-5.21
2018-03-18T07:49:58.754Z,-5.10
2018-03-18T07:51:05.285Z,-5.36
2018-03-18T07:52:12.116Z,-5.13
2018-03-18T07:53:19.583Z,-5.07
2018-03-18T07:54:26.774Z,-4.97
2018-03-18T07:55:33.307Z,-5.22
2018-03-18T07:56:40.030Z,-5.13
2018-03-18T07:57:46.808Z,-5.02
2018-03-18T07:58:53.344Z,-4.97
2018-03-18T07:59:59.818Z,-4.82
2018-03-18T08:01:06.035Z,-4.56
2018-03-18T08:02:15.635Z,-4.63
2018-03-18T08:03:25.202Z,-4.50
2018-03-18T08:04:31.424Z,-4.84
2018-03-18T08:05:37.557Z,-4.78
2018-03-18T08:06:43.743Z,-4.59
2018-03-18T08:07:49.987Z,-4.60
2018-03-18T08:08:56.202Z,-4.50
2018-03-18T08:10:02.377Z,-4.71
2018-03-18T08:11:08.629Z,-4.91
2018-03-18T08:12:14.795Z,-5.02
2018-03-18T08:13:21.054Z,-5.08
2018-03-18T08:14:27.222Z,-4.88
2018-03-18T08:15:33.352Z,-4.71
2018-03-18T08:16:39.472Z,-4.72
2018-03-18T08:17:45.648Z,-4.55
2018-03-18T08:18:51.884Z,-4.32
2018-03-18T08:19:58.087Z,-4.14
2018-03-18T08:21:10.336Z,-4.30
2018-03-18T08:22:16.547Z,-4.31
2018-03-18T08:23:22.767Z,-4.42
2018-03-18T08:24:28.957Z,-4.59
2018-03-18T08:25:35.161Z,-4.66
2018-03-18T08:26:41.342Z,-4.77
2018-03-18T08:27:47.504Z,-4.47
2018-03-18T08:28:58.698Z,-4.19
2018-03-18T08:30:04.324Z,-4.19
2018-03-18T08:31:10.563Z,-3.97
2018-03-18T08:32:20.069Z,-3.97
2018-03-18T08:33:26.958Z,-4.29
2018-03-18T08:34:34.542Z,-4.32
2018-03-18T08:35:45.664Z,-4.19
2018-03-18T08:36:53.084Z,-4.40
2018-03-18T08:38:00.235Z,-4.48
2018-03-18T08:39:05.734Z,-4.38
2018-03-18T08:40:11.944Z,-4.32
2018-03-18T08:41:18.155Z,-4.15
2018-03-18T08:42:29.355Z,-3.80
2018-03-18T08:43:35.683Z,-3.76
2018-03-18T08:44:43.282Z,-4.29
2018-03-18T08:45:50.133Z,-4.12
2018-03-18T08:46:56.589Z,-4.37
2018-03-18T08:48:02.817Z,-4.24
2018-03-18T08:49:09.014Z,-4.01
2018-03-18T08:50:15.264Z,-4.02
2018-03-18T08:51:21.733Z,-4.22
2018-03-18T08:52:27.907Z,-3.87
2018-03-18T08:53:34.076Z,-4.03
2018-03-18T08:54:40.269Z,-4.31
2018-03-18T08:55:46.797Z,-4.05
2018-03-18T08:56:59.869Z,-4.08
2018-03-18T08:58:06.107Z,-3.96
2018-03-18T08:59:12.105Z,-3.77
2018-03-18T09:00:18.117Z,-4.27
2018-03-18T09:01:23.960Z,-4.08
2018-03-18T09:02:30.126Z,-4.32
2018-03-18T09:03:36.390Z,-4.15
2018-03-18T09:04:44.237Z,-4.06
2018-03-18T09:05:54.102Z,-4.14
2018-03-18T09:07:00.306Z,-4.23
2018-03-18T09:08:06.522Z,-3.93
2018-03-18T09:09:12.770Z,-4.03
2018-03-18T09:10:19.010Z,-4.09
2018-03-18T09:11:25.200Z,-4.11
2018-03-18T09:12:31.411Z,-3.77
2018-03-18T09:13:37.718Z,-3.90
2018-03-18T09:14:43.901Z,-3.96
2018-03-18T09:15:50.084Z,-3.87
2018-03-18T09:16:56.309Z,-3.57
2018-03-18T09:18:02.784Z,-3.87
2018-03-18T09:19:09.145Z,-3.91
2018-03-18T09:20:15.264Z,-4.02
2018-03-18T09:21:23.537Z,-3.87
2018-03-18T09:22:29.798Z,-3.85
2018-03-18T09:23:36.107Z,-3.66
2018-03-18T09:24:42.830Z,-3.62
2018-03-18T09:25:52.976Z,-3.93
2018-03-18T09:26:59.956Z,-3.79
2018-03-18T09:28:05.975Z,-4.02
2018-03-18T09:29:12.224Z,-4.09
2018-03-18T09:30:18.638Z,-3.90
2018-03-18T09:31:25.054Z,-3.76
2018-03-18T09:32:31.229Z,-3.83
2018-03-18T09:33:37.477Z,-3.77
2018-03-18T09:34:43.725Z,-3.74
2018-03-18T09:35:49.610Z,-4.16
2018-03-18T09:36:55.567Z,-3.97
2018-03-18T09:38:01.794Z,-3.63
2018-03-18T09:39:08.142Z,-3.63
2018-03-18T09:40:13.961Z,-3.48
2018-03-18T09:41:20.217Z,-3.78
2018-03-18T09:42:26.438Z,-3.59
2018-03-18T09:43:32.699Z,-3.51
2018-03-18T09:44:40.275Z,-3.34
2018-03-18T09:45:46.503Z,-3.16
2018-03-18T09:46:52.818Z,-3.05
2018-03-18T09:47:59.076Z,-3.21
2018-03-18T09:49:05.363Z,-3.22
2018-03-18T09:50:11.788Z,-3.17
2018-03-18T09:51:18.217Z,-3.49
2018-03-18T09:52:24.424Z,-3.70
2018-03-18T09:53:30.657Z,-3.75
2018-03-18T09:54:36.856Z,-3.75
2018-03-18T09:55:43.105Z,-3.38
2018-03-18T09:56:49.411Z,-3.28
2018-03-18T09:57:55.688Z,-3.00
2018-03-18T09:59:01.892Z,-3.49
2018-03-18T10:00:08.072Z,-3.19
2018-03-18T10:01:14.327Z,-3.34
2018-03-18T10:02:20.836Z,-3.50
2018-03-18T10:03:27.016Z,-3.47
2018-03-18T10:04:33.047Z,-3.32
2018-03-18T10:05:39.307Z,-3.48
2018-03-18T10:06:45.634Z,-3.11
2018-03-18T10:07:52.021Z,-3.12
2018-03-18T10:08:58.250Z,-3.19
2018-03-18T10:10:03.855Z,-3.14
2018-03-18T10:11:10.069Z,-3.14
2018-03-18T10:12:16.301Z,-3.20
2018-03-18T10:13:22.612Z,-3.33
2018-03-18T10:14:28.899Z,-3.30
2018-03-18T10:15:35.088Z,-3.42
2018-03-18T10:16:41.318Z,-3.30
2018-03-18T10:17:47.566Z,-3.44
2018-03-18T10:18:53.808Z,-3.14
2018-03-18T10:20:00.051Z,-3.03
2018-03-18T10:21:06.324Z,-3.11
2018-03-18T10:22:12.557Z,-3.14
2018-03-18T10:23:18.842Z,-2.94
2018-03-18T10:24:25.088Z,-3.17
2018-03-18T10:25:30.910Z,-3.01
2018-03-18T10:26:36.977Z,-2.99
2018-03-18T10:27:43.293Z,-3.19
2018-03-18T10:28:49.994Z,-2.97
2018-03-18T10:29:55.884Z,-2.99
2018-03-18T10:31:01.923Z,-2.87
2018-03-18T10:32:08.171Z,-2.94
2018-03-18T10:33:14.433Z,-2.83
2018-03-18T10:34:20.556Z,-2.91
2018-03-18T10:35:26.836Z,-2.68
2018-03-18T10:36:33.064Z,-2.44
2018-03-18T10:37:39.312Z,-2.41
2018-03-18T10:38:45.580Z,-2.55
2018-03-18T10:39:51.857Z,-2.47
2018-03-18T10:40:58.070Z,-2.40
2018-03-18T10:42:04.659Z,-2.40
2018-03-18T10:43:11.151Z,-2.47
2018-03-18T10:44:17.482Z,-2.47
2018-03-18T10:45:23.745Z,-2.84
2018-03-18T10:46:29.936Z,-2.86
2018-03-18T10:47:36.174Z,-2.77
2018-03-18T10:48:43.179Z,-2.58
2018-03-18T10:49:49.443Z,-2.66
2018-03-18T10:50:55.784Z,-2.42
2018-03-18T10:52:02.008Z,-2.42
2018-03-18T10:53:08.195Z,-2.43
2018-03-18T10:54:14.466Z,-2.48
2018-03-18T10:55:20.723Z,-2.64
2018-03-18T10:56:26.969Z,-2.74
2018-03-18T10:57:33.198Z,-2.61
2018-03-18T10:58:40.473Z,-2.52
2018-03-18T10:59:46.743Z,-2.65
2018-03-18T11:00:53.659Z,-2.37
2018-03-18T11:02:05.635Z,-2.75
2018-03-18T11:03:11.695Z,-2.41
2018-03-18T11:04:18.807Z,-2.18
2018-03-18T11:05:25.083Z,-2.27
2018-03-18T11:06:31.312Z,-2.28
2018-03-18T11:07:37.568Z,-2.37
2018-03-18T11:08:43.872Z,-2.01
2018-03-18T11:09:53.049Z,-2.00
2018-03-18T11:11:02.929Z,-1.81
2018-03-18T11:12:11.873Z,-2.00
2018-03-18T11:13:17.902Z,-1.88
2018-03-18T11:14:26.105Z,-2.10
2018-03-18T11:15:32.375Z,-2.34
2018-03-18T11:16:38.619Z,-2.41
2018-03-18T11:17:44.858Z,-2.43
2018-03-18T11:18:51.050Z,-2.61
2018-03-18T11:19:57.246Z,-2.62
2018-03-18T11:21:03.481Z,-2.51
2018-03-18T11:22:09.918Z,-2.48
2018-03-18T11:23:15.991Z,-2.46
2018-03-18T11:24:22.283Z,-2.31
2018-03-18T11:25:28.491Z,-2.42
2018-03-18T11:26:34.714Z,-2.36
2018-03-18T11:27:40.636Z,-2.53
2018-03-18T11:28:46.823Z,-2.35
2018-03-18T11:29:53.067Z,-2.67
2018-03-18T11:30:59.260Z,-2.49
2018-03-18T11:32:05.550Z,-2.57
2018-03-18T11:33:11.756Z,-2.53
2018-03-18T11:34:23.825Z,-2.20
2018-03-18T11:35:30.087Z,-2.04
2018-03-18T11:36:36.361Z,-1.87
2018-03-18T11:37:42.583Z,-2.06
2018-03-18T11:38:48.483Z,-2.34
2018-03-18T11:39:54.720Z,-2.45
2018-03-18T11:41:00.954Z,-2.22
2018-03-18T11:42:07.114Z,-2.04
2018-03-18T11:43:13.269Z,-2.16
2018-03-18T11:44:19.632Z,-2.01
2018-03-18T11:45:25.872Z,-2.00
2018-03-18T11:46:31.789Z,-1.85
2018-03-18T11:47:37.973Z,-2.14
2018-03-18T11:48:44.223Z,-2.19
2018-03-18T11:49:51.421Z,-1.99
2018-03-18T11:50:57.293Z,-2.06
2018-03-18T11:52:03.861Z,-2.23
2018-03-18T11:53:10.088Z,-2.14
2018-03-18T11:54:16.349Z,-2.15
2018-03-18T11:55:22.817Z,-2.09
2018-03-18T11:56:29.062Z,-1.88
2018-03-18T11:57:35.308Z,-1.67
2018-03-18T11:58:41.223Z,-1.61
2018-03-18T11:59:47.708Z,-1.56
2018-03-18T12:00:54.858Z,-1.61
2018-03-18T12:02:01.111Z,-1.86
2018-03-18T12:03:07.392Z,-1.93
2018-03-18T12:04:13.275Z,-1.81
2018-03-18T12:05:19.197Z,-1.99
2018-03-18T12:06:25.517Z,-1.97
2018-03-18T12:07:31.943Z,-1.95
2018-03-18T12:08:48.875Z,-2.02
2018-03-18T12:09:54.879Z,-1.99
2018-03-18T12:11:03.165Z,-1.92
2018-03-18T12:12:10.072Z,-1.76
2018-03-18T12:13:16.945Z,-1.75
2018-03-18T12:14:25.614Z,-1.73
2018-03-18T12:15:31.786Z,-1.66
2018-03-18T12:16:38.089Z,-1.58
2018-03-18T12:17:44.056Z,-1.81
2018-03-18T12:18:50.363Z,-1.80
2018-03-18T12:19:56.598Z,-1.83
2018-03-18T12:21:02.852Z,-1.57
2018-03-18T12:22:09.138Z,-1.53
2018-03-18T12:23:15.216Z,-1.29
2018-03-18T12:24:21.693Z,-1.44
2018-03-18T12:25:27.955Z,-1.55
2018-03-18T12:26:33.900Z,-1.57
2018-03-18T12:27:40.123Z,-1.56
2018-03-18T12:28:46.484Z,-1.44
2018-03-18T12:29:52.798Z,-1.44
2018-03-18T12:30:59.271Z,-1.63
2018-03-18T12:32:05.548Z,-1.68
2018-03-18T12:33:11.513Z,-1.57
2018-03-18T12:34:17.126Z,-1.55
2018-03-18T12:35:22.728Z,-1.69
2018-03-18T12:36:29.053Z,-1.72
2018-03-18T12:37:35.240Z,-1.66
2018-03-18T12:38:41.611Z,-1.58
2018-03-18T12:39:59.805Z,-1.52
2018-03-18T12:41:05.142Z,-1.67
2018-03-18T12:42:10.856Z,-1.48
2018-03-18T12:43:30.452Z,-1.28
2018-03-18T12:44:36.755Z,-1.54
2018-03-18T12:45:43.580Z,-1.40
2018-03-18T12:46:50.291Z,-1.75
2018-03-18T12:47:56.622Z,-1.51
2018-03-18T12:49:03.636Z,-1.31
2018-03-18T12:50:09.860Z,-1.09
2018-03-18T12:51:16.137Z,-0.95
2018-03-18T12:52:25.641Z,-0.90
2018-03-18T12:53:31.337Z,-0.98
2018-03-18T12:54:37.913Z,-0.97
2018-03-18T12:55:44.490Z,-0.99
2018-03-18T12:56:50.786Z,-1.37
2018-03-18T12:57:57.013Z,-1.29
2018-03-18T12:59:04.220Z,-1.49
2018-03-18T13:00:10.622Z,-1.21
2018-03-18T13:01:16.845Z,-1.29
2018-03-18T13:02:23.208Z,-0.96
2018-03-18T13:03:30.403Z,-1.16
2018-03-18T13:04:36.379Z,-0.93
2018-03-18T13:05:42.666Z,-0.91
2018-03-18T13:06:50.948Z,-1.26
2018-03-18T13:07:57.268Z,-0.95
2018-03-18T13:09:03.372Z,-0.92
2018-03-18T13:10:09.360Z,-0.95
2018-03-18T13:11:15.702Z,-1.09
2018-03-18T13:12:22.725Z,-1.19
2018-03-18T13:13:29.010Z,-1.31
2018-03-18T13:14:35.361Z,-1.22
2018-03-18T13:15:42.433Z,-1.18
2018-03-18T13:16:49.945Z,-1.09
2018-03-18T13:17:56.423Z,-0.99
2018-03-18T13:19:02.706Z,-1.23
2018-03-18T13:20:08.921Z,-1.38
2018-03-18T13:21:15.219Z,-1.48
2018-03-18T13:22:21.542Z,-1.38
2018-03-18T13:23:27.824Z,-1.43
2018-03-18T13:24:34.037Z,-1.30
2018-03-18T13:25:40.325Z,-1.28
2018-03-18T13:26:46.642Z,-0.99
2018-03-18T13:27:52.896Z,-1.25
2018-03-18T13:28:59.138Z,-1.22
2018-03-18T13:30:04.755Z,-0.96
2018-03-18T13:31:11.046Z,-1.20
2018-03-18T13:32:17.902Z,-1.42
2018-03-18T13:33:24.207Z,-1.49
2018-03-18T13:34:31.143Z,-1.36
2018-03-18T13:35:37.290Z,-1.11
2018-03-18T13:36:43.668Z,-1.27
2018-03-18T13:37:49.919Z,-1.18
2018-03-18T13:38:56.160Z,-1.33
2018-03-18T13:40:02.448Z,-1.24
2018-03-18T13:41:09.801Z,-1.33
2018-03-18T13:42:15.390Z,-1.37
2018-03-18T13:43:20.974Z,-1.42
2018-03-18T13:44:27.001Z,-1.19
2018-03-18T13:45:33.499Z,-1.09
2018-03-18T13:46:39.723Z,-1.04
2018-03-18T13:47:45.968Z,-0.84
2018-03-18T13:48:52.134Z,-0.89
2018-03-18T13:49:58.362Z,-0.93
2018-03-18T13:51:04.274Z,-0.94
2018-03-18T13:52:10.561Z,-0.86
2018-03-18T13:53:17.546Z,-0.95
2018-03-18T13:54:23.842Z,-1.01
2018-03-18T13:55:29.764Z,-1.07
2018-03-18T13:56:35.771Z,-0.93
2018-03-18T13:57:41.906Z,-1.12
2018-03-18T13:58:52.412Z,-1.18
2018-03-18T13:59:58.914Z,-1.02
2018-03-18T14:01:04.508Z,-1.01
2018-03-18T14:02:11.604Z,-1.01
2018-03-18T14:03:17.494Z,-1.17
2018-03-18T14:04:23.796Z,-1.07
2018-03-18T14:05:30.105Z,-0.96
2018-03-18T14:06:36.227Z,-1.13
2018-03-18T14:07:43.482Z,-1.12
2018-03-18T14:08:49.895Z,-1.08
2018-03-18T14:09:56.124Z,-1.10
2018-03-18T14:11:02.417Z,-0.83
2018-03-18T14:12:08.801Z,-0.98
2018-03-18T14:13:21.508Z,-1.06
2018-03-18T14:14:31.401Z,-0.99
2018-03-18T14:15:37.627Z,-0.87
2018-03-18T14:16:43.908Z,-0.90
2018-03-18T14:17:51.184Z,-0.87